Time;durP1;ratioP1;P1;durP2;ratioP2;P2;SDS_P1;SDS_P2;PMS_P1;PMS_P2;Temp;Humidity;BMP_temperature;BMP_pressure;BME280_temperature;BME280_humidity;BME280_pressure;Samples;Min_cycle;Max_cycle;Signal;HPM_P1;HPM_P2
2022/10/04 00:01:21;;;;;;;3.85;1.80;;;;;;;;;;5056469;28;20021;-73
2022/10/04 00:03:50;;;;;;;6.18;1.67;;;;;;;;;;5052642;28;20400;-74
2022/10/04 00:06:19;;;;;;;2.60;1.45;;;;;;;;;;5056672;28;20047;-73
2022/10/04 00:08:55;;;;;;;1.93;1.40;;;;;;;;;;5055562;28;20087;-74
2022/10/04 00:11:20;;;;;;;3.28;1.50;;;;;;;;;;5056416;28;20039;-73
2022/10/04 00:13:47;;;;;;;5.25;1.90;;;;;;;;;;5056650;28;20033;-73
2022/10/04 00:16:32;;;;;;;4.68;1.80;;;;;;;;;;5054332;28;20059;-74
2022/10/04 00:19:21;;;;;;;3.92;1.50;;;;;;;;;;5056150;28;20033;-74
2022/10/04 00:21:52;;;;;;;3.65;1.75;;;;;;;;;;5018867;28;20486;-73
2022/10/04 00:24:24;;;;;;;3.10;1.75;;;;;;;;;;5056431;28;20037;-73
2022/10/04 00:26:49;;;;;;;1.92;1.45;;;;;;;;;;5055000;28;20073;-71
2022/10/04 00:29:32;;;;;;;2.35;1.40;;;;;;;;;;5054831;28;20111;-71
2022/10/04 00:32:09;;;;;;;3.42;1.50;;;;;;;;;;5056040;28;20387;-71
2022/10/04 00:34:34;;;;;;;3.00;1.60;;;;;;;;;;5055728;28;20494;-71
2022/10/04 00:37:00;;;;;;;3.63;1.38;;;;;;;;;;5056021;28;20021;-71
2022/10/04 00:39:37;;;;;;;3.38;1.58;;;;;;;;;;5056017;28;20029;-70
2022/10/04 00:42:21;;;;;;;3.92;1.30;;;;;;;;;;5054712;28;20044;-71
2022/10/04 00:44:52;;;;;;;3.50;1.30;;;;;;;;;;5055543;28;20025;-70
2022/10/04 00:47:30;;;;;;;2.30;1.17;;;;;;;;;;5056088;28;20039;-71
2022/10/04 00:50:25;;;;;;;1.60;1.23;;;;;;;;;;5055362;28;20031;-72
2022/10/04 00:52:52;;;;;;;2.03;1.17;;;;;;;;;;5038290;28;20490;-69
2022/10/04 00:55:38;;;;;;;2.40;1.30;;;;;;;;;;5055733;28;20036;-70
2022/10/04 00:58:07;;;;;;;1.50;1.00;;;;;;;;;;5055187;28;20395;-69
2022/10/04 01:00:34;;;;;;;2.85;1.45;;;;;;;;;;5055404;28;20076;-70
2022/10/04 01:03:02;;;;;;;2.20;1.35;;;;;;;;;;5055343;28;20048;-70
2022/10/04 01:05:33;;;;;;;3.88;1.73;;;;;;;;;;5055159;28;20029;-69
2022/10/04 01:08:10;;;;;;;1.85;1.23;;;;;;;;;;5055583;28;20471;-71
2022/10/04 01:10:39;;;;;;;2.10;1.48;;;;;;;;;;5055234;28;20029;-71
2022/10/04 01:13:22;;;;;;;2.78;1.42;;;;;;;;;;5055215;28;20360;-71
2022/10/04 01:15:52;;;;;;;2.67;1.60;;;;;;;;;;5055080;28;20021;-70
2022/10/04 01:18:17;;;;;;;3.63;1.38;;;;;;;;;;5055098;28;20044;-71
2022/10/04 01:20:49;;;;;;;2.67;1.38;;;;;;;;;;5054905;28;20017;-73
2022/10/04 01:23:33;;;;;;;2.95;1.30;;;;;;;;;;5055224;28;20422;-72
2022/10/04 01:25:58;;;;;;;4.65;1.40;;;;;;;;;;5054843;28;20399;-73
2022/10/04 01:28:25;;;;;;;2.70;1.20;;;;;;;;;;5055110;28;20025;-74
2022/10/04 01:30:50;;;;;;;2.80;1.35;;;;;;;;;;5055154;28;20040;-72
2022/10/04 01:33:16;;;;;;;4.05;1.42;;;;;;;;;;5055120;28;20025;-73
2022/10/04 01:35:41;;;;;;;2.03;1.17;;;;;;;;;;5054898;28;20043;-74
2022/10/04 01:38:07;;;;;;;3.53;1.45;;;;;;;;;;5054786;28;20409;-74
2022/10/04 01:40:33;;;;;;;4.13;1.50;;;;;;;;;;5054678;28;20036;-73
2022/10/04 01:43:05;;;;;;;5.57;1.58;;;;;;;;;;5054845;28;20028;-71
2022/10/04 01:45:46;;;;;;;1.77;1.20;;;;;;;;;;5054830;28;20483;-73
2022/10/04 01:48:15;;;;;;;2.72;1.35;;;;;;;;;;5054475;28;20033;-72
2022/10/04 01:50:54;;;;;;;3.13;1.10;;;;;;;;;;5054338;28;20025;-74
2022/10/04 01:53:28;;;;;;;2.83;1.10;;;;;;;;;;5053621;28;20521;-73
2022/10/04 01:56:16;;;;;;;3.45;1.27;;;;;;;;;;5054797;28;20021;-74
2022/10/04 01:58:41;;;;;;;4.40;1.48;;;;;;;;;;5026370;28;20037;-73
2022/10/04 02:01:13;;;;;;;3.50;1.20;;;;;;;;;;5053329;28;20086;-74
2022/10/04 02:03:52;;;;;;;2.03;1.10;;;;;;;;;;5054717;28;20036;-72
2022/10/04 02:06:19;;;;;;;2.00;1.23;;;;;;;;;;5054123;28;20041;-73
2022/10/04 02:08:46;;;;;;;2.38;1.33;;;;;;;;;;5054193;28;20021;-73
2022/10/04 02:11:15;;;;;;;2.78;1.30;;;;;;;;;;5054283;28;20086;-72
2022/10/04 02:13:42;;;;;;;2.15;1.10;;;;;;;;;;5054184;28;20040;-70
2022/10/04 02:16:09;;;;;;;1.50;1.00;;;;;;;;;;5054180;28;20017;-70
2022/10/04 02:18:36;;;;;;;2.90;1.10;;;;;;;;;;5054099;28;20041;-70
2022/10/04 02:21:04;;;;;;;1.70;1.25;;;;;;;;;;5053998;28;20438;-70
2022/10/04 02:23:29;;;;;;;3.22;1.33;;;;;;;;;;5051894;28;20082;-69
2022/10/04 02:25:55;;;;;;;2.55;1.10;;;;;;;;;;5054081;28;20029;-69
2022/10/04 02:28:20;;;;;;;2.88;0.88;;;;;;;;;;5053863;28;20036;-69
2022/10/04 02:32:56;;;;;;;2.13;1.25;;;;;;;;;;5054023;28;20061;-69
2022/10/04 02:33:37;;;;;;;1.42;1.08;;;;;;;;;;5053927;28;20067;-69
2022/10/04 02:36:04;;;;;;;3.10;1.27;;;;;;;;;;5053564;28;20029;-70
2022/10/04 02:38:33;;;;;;;2.25;0.95;;;;;;;;;;5052865;28;20320;-69
2022/10/04 02:41:02;;;;;;;2.40;1.40;;;;;;;;;;5053603;28;20071;-69
2022/10/04 02:43:31;;;;;;;3.67;1.50;;;;;;;;;;5053796;28;20057;-74
2022/10/04 02:46:06;;;;;;;3.53;1.30;;;;;;;;;;5053445;28;20078;-73
2022/10/04 02:48:46;;;;;;;3.88;1.33;;;;;;;;;;5053720;28;20029;-72
2022/10/04 02:51:17;;;;;;;1.88;0.90;;;;;;;;;;5053896;28;20041;-74
2022/10/04 02:53:52;;;;;;;4.57;1.60;;;;;;;;;;5052474;28;20067;-72
2022/10/04 02:56:17;;;;;;;2.65;1.23;;;;;;;;;;5052738;28;20068;-72
2022/10/04 02:58:43;;;;;;;2.53;1.13;;;;;;;;;;5053728;28;20063;-73
2022/10/04 03:01:16;;;;;;;4.13;1.30;;;;;;;;;;5053826;28;20025;-73
2022/10/04 03:03:43;;;;;;;3.85;1.40;;;;;;;;;;5053694;28;20037;-74
2022/10/04 03:06:12;;;;;;;4.18;1.20;;;;;;;;;;5053560;28;20506;-74
2022/10/04 03:08:37;;;;;;;3.85;0.95;;;;;;;;;;5052663;28;20040;-73
2022/10/04 03:11:03;;;;;;;3.13;1.20;;;;;;;;;;5053584;28;20017;-74
2022/10/04 03:13:29;;;;;;;2.40;1.13;;;;;;;;;;5053626;28;20429;-73
2022/10/04 03:15:55;;;;;;;1.98;1.30;;;;;;;;;;5035781;28;20067;-74
2022/10/04 03:18:21;;;;;;;3.33;1.40;;;;;;;;;;5052194;28;20049;-73
2022/10/04 03:20:47;;;;;;;3.33;1.13;;;;;;;;;;5052272;28;20035;-73
2022/10/04 03:23:14;;;;;;;3.95;1.27;;;;;;;;;;5051811;28;20127;-75
2022/10/04 03:25:55;;;;;;;1.45;1.08;;;;;;;;;;5053521;28;20408;-74
2022/10/04 03:28:21;;;;;;;2.22;1.10;;;;;;;;;;5053537;28;20044;-73
2022/10/04 03:30:48;;;;;;;1.63;1.17;;;;;;;;;;5053544;28;20029;-73
2022/10/04 03:33:21;;;;;;;3.13;1.40;;;;;;;;;;5051726;28;20064;-72
2022/10/04 03:35:49;;;;;;;2.90;1.25;;;;;;;;;;5053412;28;20064;-74
2022/10/04 03:38:16;;;;;;;2.72;1.38;;;;;;;;;;5053467;28;20021;-72
2022/10/04 03:40:48;;;;;;;3.50;1.00;;;;;;;;;;5053436;28;20082;-74
2022/10/04 03:43:14;;;;;;;2.05;1.10;;;;;;;;;;5053249;28;20438;-74
2022/10/04 03:45:40;;;;;;;3.67;1.20;;;;;;;;;;5052936;28;20021;-75
2022/10/04 03:48:07;;;;;;;3.10;1.20;;;;;;;;;;5053328;28;20032;-73
2022/10/04 03:50:53;;;;;;;2.25;1.10;;;;;;;;;;5054692;28;20647;-73
2022/10/04 03:53:25;;;;;;;2.70;1.05;;;;;;;;;;5055339;28;20494;-73
2022/10/04 03:55:51;;;;;;;2.50;1.27;;;;;;;;;;5054992;28;20440;-73
2022/10/04 03:58:17;;;;;;;3.38;1.13;;;;;;;;;;5056090;28;20049;-74
2022/10/04 04:00:46;;;;;;;4.38;1.42;;;;;;;;;;5055417;28;20165;-74
2022/10/04 04:03:15;;;;;;;2.05;1.15;;;;;;;;;;5055916;28;20478;-73
2022/10/04 04:05:45;;;;;;;3.35;1.17;;;;;;;;;;5055792;28;20460;-75
2022/10/04 04:08:18;;;;;;;3.40;1.10;;;;;;;;;;5055573;28;20111;-76
2022/10/04 04:10:45;;;;;;;2.97;1.25;;;;;;;;;;5055857;28;20105;-75
2022/10/04 04:13:28;;;;;;;2.67;1.17;;;;;;;;;;5055486;28;20426;-75
2022/10/04 04:15:54;;;;;;;3.78;1.40;;;;;;;;;;5054900;28;20703;-75
2022/10/04 04:18:21;;;;;;;4.40;1.15;;;;;;;;;;5054095;28;20446;-75
2022/10/04 04:20:48;;;;;;;4.15;1.30;;;;;;;;;;5054713;28;20032;-75
2022/10/04 04:23:13;;;;;;;1.98;0.98;;;;;;;;;;5054501;28;20025;-75
2022/10/04 04:25:50;;;;;;;4.53;1.30;;;;;;;;;;5054711;28;20479;-74
2022/10/04 04:28:25;;;;;;;4.03;1.33;;;;;;;;;;5054516;28;20020;-74
2022/10/04 04:30:56;;;;;;;3.53;1.23;;;;;;;;;;5054676;28;20040;-73
2022/10/04 04:33:28;;;;;;;2.53;1.23;;;;;;;;;;5054153;28;20043;-75
2022/10/04 04:36:05;;;;;;;1.40;1.00;;;;;;;;;;5054217;28;20021;-75
2022/10/04 04:38:30;;;;;;;5.68;1.35;;;;;;;;;;5054324;28;20021;-76
2022/10/04 04:40:56;;;;;;;2.75;1.17;;;;;;;;;;5053804;28;20085;-75
2022/10/04 04:43:25;;;;;;;2.80;1.05;;;;;;;;;;5054324;28;20048;-73
2022/10/04 04:45:51;;;;;;;3.53;1.30;;;;;;;;;;5055373;28;20104;-76
2022/10/04 04:48:17;;;;;;;7.88;1.55;;;;;;;;;;5055397;28;20057;-74
2022/10/04 04:50:48;;;;;;;4.35;1.40;;;;;;;;;;5055464;28;20024;-75
2022/10/04 04:53:13;;;;;;;3.03;1.30;;;;;;;;;;5055539;28;20029;-74
2022/10/04 04:55:44;;;;;;;4.75;1.23;;;;;;;;;;5055260;28;20462;-75
2022/10/04 04:58:40;;;;;;;3.42;1.23;;;;;;;;;;5054871;28;20435;-74
2022/10/04 05:01:13;;;;;;;3.22;1.08;;;;;;;;;;5037281;28;20033;-75
2022/10/04 05:03:39;;;;;;;2.78;1.05;;;;;;;;;;5053121;28;20508;-75
2022/10/04 05:06:06;;;;;;;4.15;1.40;;;;;;;;;;5053940;28;20056;-74
2022/10/04 05:08:32;;;;;;;2.10;1.20;;;;;;;;;;5053620;28;20039;-73
2022/10/04 05:11:23;;;;;;;2.47;1.50;;;;;;;;;;5053795;28;20024;-74
2022/10/04 05:13:51;;;;;;;5.10;1.42;;;;;;;;;;5049663;28;20490;-74
2022/10/04 05:16:35;;;;;;;4.78;1.60;;;;;;;;;;5053247;28;20028;-75
2022/10/04 05:19:04;;;;;;;5.75;1.10;;;;;;;;;;5052469;28;20499;-74
2022/10/04 05:21:31;;;;;;;2.53;1.30;;;;;;;;;;5053583;28;20033;-74
2022/10/04 05:23:58;;;;;;;4.15;1.38;;;;;;;;;;5053720;28;20020;-75
2022/10/04 05:26:26;;;;;;;4.80;1.40;;;;;;;;;;5052180;28;20075;-74
2022/10/04 05:28:52;;;;;;;4.80;1.50;;;;;;;;;;5053181;28;20029;-74
2022/10/04 05:31:18;;;;;;;4.35;1.33;;;;;;;;;;5053408;28;20033;-76
2022/10/04 05:33:49;;;;;;;4.45;1.45;;;;;;;;;;5053169;28;20021;-74
2022/10/04 05:36:14;;;;;;;;;;;;;;;;;;5053870;28;20107;-74
2022/10/04 05:38:52;;;;;;;2.42;1.02;;;;;;;;;;5035268;28;19939;-75
2022/10/04 05:41:32;;;;;;;3.40;1.08;;;;;;;;;;5053347;28;20060;-74
2022/10/04 05:43:58;;;;;;;;;;;;;;;;;;5053500;28;20048;-70
2022/10/04 05:46:33;;;;;;;3.60;1.80;;;;;;;;;;5052140;28;20363;-70
2022/10/04 05:49:01;;;;;;;3.55;1.60;;;;;;;;;;5052188;28;20111;-71
2022/10/04 05:51:28;;;;;;;5.45;1.60;;;;;;;;;;5051141;28;20071;-69
2022/10/04 05:53:56;;;;;;;3.33;1.40;;;;;;;;;;5050738;28;20472;-69
2022/10/04 05:56:29;;;;;;;3.90;1.20;;;;;;;;;;5051929;28;20118;-70
2022/10/04 05:58:57;;;;;;;6.10;1.50;;;;;;;;;;5051077;28;20072;-70
2022/10/04 06:01:30;;;;;;;2.92;1.33;;;;;;;;;;5052832;28;20017;-70
2022/10/04 06:04:13;;;;;;;5.13;1.85;;;;;;;;;;5052713;28;20029;-69
2022/10/04 06:06:41;;;;;;;3.88;1.50;;;;;;;;;;5052510;28;20083;-71
2022/10/04 06:09:18;;;;;;;3.47;1.52;;;;;;;;;;5052785;28;20025;-70
2022/10/04 06:11:46;;;;;;;5.65;2.10;;;;;;;;;;5052722;28;20032;-71
2022/10/04 06:14:12;;;;;;;4.07;1.67;;;;;;;;;;5051338;28;20056;-71
2022/10/04 06:16:41;;;;;;;3.83;1.38;;;;;;;;;;5053604;28;20036;-72
2022/10/04 06:19:29;;;;;;;8.38;2.30;;;;;;;;;;5053889;28;20368;-70
2022/10/04 06:22:15;;;;;;;5.80;1.40;;;;;;;;;;5042772;28;20033;-70
2022/10/04 06:24:42;;;;;;;3.20;1.45;;;;;;;;;;5054156;28;20091;-71
2022/10/04 06:27:11;;;;;;;2.30;1.45;;;;;;;;;;5053890;28;20025;-70
2022/10/04 06:29:46;;;;;;;4.72;1.50;;;;;;;;;;5052229;28;20037;-70
2022/10/04 06:32:14;;;;;;;3.33;1.48;;;;;;;;;;5053550;28;20040;-70
2022/10/04 06:34:58;;;;;;;3.15;1.33;;;;;;;;;;5052806;28;20035;-74
2022/10/04 06:37:26;;;;;;;4.50;1.33;;;;;;;;;;5053590;28;20071;-74
2022/10/04 06:40:00;;;;;;;4.53;1.45;;;;;;;;;;5052344;28;20025;-74
2022/10/04 06:42:44;;;;;;;3.78;1.40;;;;;;;;;;5053579;28;20025;-74
2022/10/04 06:45:28;;;;;;;3.30;1.73;;;;;;;;;;5052340;28;20041;-74
2022/10/04 06:48:09;;;;;;;3.97;1.85;;;;;;;;;;5053448;28;20544;-74
2022/10/04 06:50:34;;;;;;;;;;;;;;;;;;5053828;28;20041;-74
2022/10/04 06:53:18;;;;;;;4.15;1.40;;;;;;;;;;5053051;28;19912;-72
2022/10/04 06:56:07;;;;;;;3.25;1.30;;;;;;;;;;5053354;28;20107;-73
2022/10/04 06:58:42;;;;;;;3.42;1.58;;;;;;;;;;5053467;28;20024;-74
2022/10/04 07:01:28;;;;;;;5.30;1.48;;;;;;;;;;5053185;28;20053;-73
2022/10/04 07:04:11;;;;;;;3.13;1.13;;;;;;;;;;5051918;28;20068;-74
2022/10/04 07:06:39;;;;;;;3.25;1.55;;;;;;;;;;5051281;28;20367;-73
2022/10/04 07:09:06;;;;;;;4.03;1.50;;;;;;;;;;5051883;28;20017;-74
2022/10/04 07:11:42;;;;;;;3.38;1.30;;;;;;;;;;5051972;28;20037;-74
2022/10/04 07:14:14;;;;;;;4.70;1.33;;;;;;;;;;5051906;28;20080;-73
2022/10/04 07:16:43;;;;;;;3.33;1.40;;;;;;;;;;5051672;28;20041;-74
2022/10/04 07:19:27;;;;;;;3.83;1.15;;;;;;;;;;5051272;28;20114;-74
2022/10/04 07:21:52;;;;;;;2.53;1.20;;;;;;;;;;5052074;28;20025;-73
2022/10/04 07:24:20;;;;;;;4.88;1.95;;;;;;;;;;5052255;28;20040;-74
2022/10/04 07:26:49;;;;;;;4.30;1.50;;;;;;;;;;5055832;28;20571;-73
2022/10/04 07:29:27;;;;;;;4.82;1.90;;;;;;;;;;5055787;28;20096;-73
2022/10/04 07:32:04;;;;;;;4.40;1.30;;;;;;;;;;5055715;28;20083;-73
2022/10/04 07:34:34;;;;;;;3.25;1.48;;;;;;;;;;5055624;28;20509;-74
2022/10/04 07:37:05;;;;;;;2.85;1.67;;;;;;;;;;5055488;28;20152;-73
2022/10/04 07:39:37;;;;;;;3.00;1.35;;;;;;;;;;5055684;28;20029;-74
2022/10/04 07:42:17;;;;;;;3.20;1.55;;;;;;;;;;5055579;28;20048;-74
2022/10/04 07:44:47;;;;;;;4.60;1.70;;;;;;;;;;5055561;28;20025;-74
2022/10/04 07:47:19;;;;;;;4.80;1.45;;;;;;;;;;5055517;28;20083;-74
2022/10/04 07:49:49;;;;;;;6.28;1.67;;;;;;;;;;5055206;28;20471;-74
2022/10/04 07:52:29;;;;;;;3.03;1.35;;;;;;;;;;5055413;28;20037;-74
2022/10/04 07:54:59;;;;;;;2.88;1.50;;;;;;;;;;5055057;28;20029;-74
2022/10/04 07:57:43;;;;;;;4.13;2.05;;;;;;;;;;5055056;28;20009;-73
2022/10/04 08:00:12;;;;;;;4.68;1.52;;;;;;;;;;5055236;28;20033;-74
2022/10/04 08:02:56;;;;;;;4.15;1.77;;;;;;;;;;5055606;28;20056;-74
2022/10/04 08:05:25;;;;;;;3.45;1.55;;;;;;;;;;5053912;28;20040;-74
2022/10/04 08:08:09;;;;;;;3.25;1.55;;;;;;;;;;5055133;28;20482;-74
2022/10/04 08:10:44;;;;;;;4.95;1.60;;;;;;;;;;5055122;28;20033;-74
2022/10/04 08:13:12;;;;;;;2.70;1.70;;;;;;;;;;5054948;28;20124;-73
2022/10/04 08:15:39;;;;;;;2.65;1.55;;;;;;;;;;5055024;28;20021;-73
2022/10/04 08:18:10;;;;;;;2.97;1.67;;;;;;;;;;5054832;28;20047;-75
2022/10/04 08:20:48;;;;;;;3.10;1.50;;;;;;;;;;5054965;28;20025;-73
2022/10/04 08:23:27;;;;;;;3.92;1.67;;;;;;;;;;5053370;28;20039;-75
2022/10/04 08:26:02;;;;;;;2.88;1.35;;;;;;;;;;5054268;28;20059;-74
2022/10/04 08:31:26;;;;;;;2.95;1.70;;;;;;;;;;5053401;28;20065;-74
2022/10/04 08:33:55;;;;;;;3.72;1.73;;;;;;;;;;5054316;28;20186;-74
2022/10/04 08:36:32;;;;;;;5.07;1.60;;;;;;;;;;5052098;28;20020;-73
2022/10/04 08:39:02;;;;;;;3.72;1.60;;;;;;;;;;5053393;28;20040;-74
2022/10/04 08:41:30;;;;;;;3.15;1.30;;;;;;;;;;5054492;28;20475;-73
2022/10/04 08:43:55;;;;;;;2.95;1.60;;;;;;;;;;5054479;28;20032;-75
2022/10/04 08:46:30;;;;;;;3.90;1.60;;;;;;;;;;5054287;28;20023;-74
2022/10/04 08:48:59;;;;;;;4.30;1.65;;;;;;;;;;5054151;28;20037;-74
2022/10/04 08:51:40;;;;;;;2.97;1.42;;;;;;;;;;5054302;28;20020;-75
2022/10/04 08:54:05;;;;;;;3.35;1.35;;;;;;;;;;5054232;28;20040;-75
2022/10/04 08:56:50;;;;;;;2.22;1.73;;;;;;;;;;5054278;28;20021;-76
2022/10/04 08:59:22;;;;;;;3.00;1.40;;;;;;;;;;5053912;28;20074;-74
2022/10/04 09:02:05;;;;;;;5.55;1.73;;;;;;;;;;5054115;28;20379;-73
2022/10/04 09:04:37;;;;;;;4.53;1.67;;;;;;;;;;5054177;28;20025;-74
2022/10/04 09:07:21;;;;;;;4.45;1.50;;;;;;;;;;5053976;28;20029;-73
2022/10/04 09:09:53;;;;;;;5.38;1.60;;;;;;;;;;5053413;28;20075;-73
2022/10/04 09:12:35;;;;;;;3.13;1.42;;;;;;;;;;5052137;28;20087;-73
2022/10/04 09:15:13;;;;;;;3.10;1.42;;;;;;;;;;5053430;28;20029;-73
2022/10/04 09:17:51;;;;;;;7.82;1.65;;;;;;;;;;5052288;28;20045;-73
2022/10/04 09:20:32;;;;;;;2.60;1.50;;;;;;;;;;5053706;28;20033;-72
2022/10/04 09:23:00;;;;;;;3.53;1.90;;;;;;;;;;5052470;28;20028;-73
2022/10/04 09:25:25;;;;;;;5.82;1.42;;;;;;;;;;5052458;28;20021;-73
2022/10/04 09:27:57;;;;;;;2.13;1.60;;;;;;;;;;5053572;28;20043;-72
2022/10/04 09:30:34;;;;;;;7.10;1.60;;;;;;;;;;5035663;28;20052;-73
2022/10/04 09:33:12;;;;;;;2.53;1.23;;;;;;;;;;5052112;28;20049;-71
2022/10/04 09:35:56;;;;;;;2.83;1.50;;;;;;;;;;5051893;28;20495;-72
2022/10/04 09:38:30;;;;;;;2.30;1.20;;;;;;;;;;5052317;28;20029;-73
2022/10/04 09:41:09;;;;;;;2.15;1.00;;;;;;;;;;5053356;28;20104;-74
2022/10/04 09:43:59;;;;;;;3.10;1.52;;;;;;;;;;5053291;28;20040;-73
2022/10/04 09:46:43;;;;;;;1.98;1.23;;;;;;;;;;5051674;28;20041;-72
2022/10/04 09:49:12;;;;;;;2.10;1.67;;;;;;;;;;5051463;28;20478;-72
2022/10/04 09:51:58;;;;;;;2.03;1.27;;;;;;;;;;5052910;28;20021;-72
2022/10/04 09:54:44;;;;;;;7.20;1.70;;;;;;;;;;5052750;28;20047;-72
2022/10/04 09:57:26;;;;;;;4.63;1.60;;;;;;;;;;5053014;28;20048;-72
2022/10/04 09:59:55;;;;;;;4.00;1.40;;;;;;;;;;5052936;28;20032;-72
2022/10/04 10:02:27;;;;;;;3.05;1.30;;;;;;;;;;5051842;28;20021;-72
2022/10/04 10:05:05;;;;;;;1.60;1.05;;;;;;;;;;5052879;28;20083;-72
2022/10/04 10:07:31;;;;;;;6.57;1.58;;;;;;;;;;5052828;28;20037;-72
2022/10/04 10:13:39;;;;;;;1.52;1.30;;;;;;;;;;5052922;28;20067;-72
2022/10/04 10:16:21;;;;;;;3.63;1.10;;;;;;;;;;5052748;28;20027;-72
2022/10/04 10:19:03;;;;;;;3.53;1.40;;;;;;;;;;5052685;28;20040;-71
2022/10/04 10:21:28;;;;;;;1.58;0.90;;;;;;;;;;5051387;28;20120;-71
2022/10/04 10:24:12;;;;;;;2.10;1.55;;;;;;;;;;5052638;28;20033;-71
2022/10/04 10:26:45;;;;;;;2.15;1.40;;;;;;;;;;5052678;28;20033;-70
2022/10/04 10:29:28;;;;;;;2.97;1.20;;;;;;;;;;5052553;28;20044;-71
2022/10/04 10:32:00;;;;;;;2.35;1.30;;;;;;;;;;5052156;28;20052;-72
2022/10/04 10:34:28;;;;;;;2.88;1.10;;;;;;;;;;5052609;28;20044;-71
2022/10/04 10:37:00;;;;;;;2.70;1.15;;;;;;;;;;5052403;28;20456;-71
2022/10/04 10:39:43;;;;;;;1.42;0.90;;;;;;;;;;5034637;28;20364;-63
2022/10/04 10:42:27;;;;;;;4.28;1.50;;;;;;;;;;5052291;28;20096;-71
2022/10/04 10:45:13;;;;;;;1.50;1.40;;;;;;;;;;5052532;28;20033;-71
2022/10/04 10:47:59;;;;;;;3.00;1.40;;;;;;;;;;5052280;28;20586;-71
2022/10/04 10:50:58;;;;;;;2.70;1.63;;;;;;;;;;5052706;28;20104;-70
2022/10/04 10:53:24;;;;;;;3.72;1.67;;;;;;;;;;5050908;28;20467;-71
2022/10/04 10:55:58;;;;;;;3.40;1.83;;;;;;;;;;5052279;28;20025;-72
2022/10/04 10:58:45;;;;;;;3.17;1.58;;;;;;;;;;5052273;28;20459;-71
2022/10/04 11:01:29;;;;;;;3.67;1.63;;;;;;;;;;5055693;28;20025;-72
2022/10/04 11:04:23;;;;;;;3.13;1.90;;;;;;;;;;5056640;28;20036;-73
2022/10/04 11:07:02;;;;;;;3.08;1.70;;;;;;;;;;5056148;28;20459;-72
2022/10/04 11:09:50;;;;;;;3.20;1.90;;;;;;;;;;5057334;28;20055;-71
2022/10/04 11:12:31;;;;;;;3.63;1.35;;;;;;;;;;5057923;28;20104;-72
2022/10/04 11:14:57;;;;;;;2.60;1.13;;;;;;;;;;5073826;22;20056;-70
2022/10/04 11:17:35;;;;;;;2.85;1.38;;;;;;;;;;5065429;22;20063;-71
2022/10/04 11:20:23;;;;;;;1.70;1.27;;;;;;;;;;5057399;28;20025;-70
2022/10/04 11:22:49;;;;;;;2.92;1.17;;;;;;;;;;5057313;28;20056;-71
2022/10/04 11:25:24;;;;;;;2.83;1.23;;;;;;;;;;5055746;28;20657;-71
2022/10/04 11:27:49;;;;;;;2.55;1.45;;;;;;;;;;5054881;28;20491;-71
2022/10/04 11:30:22;;;;;;;2.45;1.48;;;;;;;;;;5053668;28;20039;-71
2022/10/04 11:33:02;;;;;;;2.00;1.25;;;;;;;;;;5054825;28;20158;-69
2022/10/04 11:35:35;;;;;;;2.78;1.10;;;;;;;;;;5053538;28;20033;-71
2022/10/04 11:38:01;;;;;;;3.42;1.30;;;;;;;;;;5036596;28;20557;-71
2022/10/04 11:40:26;;;;;;;2.95;1.00;;;;;;;;;;5054721;28;20104;-71
2022/10/04 11:43:07;;;;;;;2.25;0.88;;;;;;;;;;5055020;28;20021;-72
2022/10/04 11:45:32;;;;;;;;;;;;;;;;;;5056907;28;20025;-70
2022/10/04 11:47:58;;;;;;;2.28;1.10;;;;;;;;;;5056025;28;19912;-70
2022/10/04 11:50:46;;;;;;;2.60;1.30;;;;;;;;;;5038630;28;20017;-71
2022/10/04 11:53:26;;;;;;;4.60;1.48;;;;;;;;;;5027763;28;20048;-71
2022/10/04 11:56:03;;;;;;;1.42;1.10;;;;;;;;;;5056738;28;20439;-71
2022/10/04 11:58:51;;;;;;;1.05;0.70;;;;;;;;;;5056281;28;20041;-72
2022/10/04 12:01:39;;;;;;;1.63;0.77;;;;;;;;;;5056612;28;20035;-70
2022/10/04 12:04:18;;;;;;;2.13;0.70;;;;;;;;;;5055996;28;20025;-70
2022/10/04 12:06:54;;;;;;;1.45;0.80;;;;;;;;;;5038429;28;20041;-70
2022/10/04 12:09:24;;;;;;;1.83;0.80;;;;;;;;;;5021560;28;20518;-71
2022/10/04 12:15:12;;;;;;;3.78;0.88;;;;;;;;;;5056010;28;20033;-72
2022/10/04 12:17:51;;;;;;;1.98;0.98;;;;;;;;;;5054802;28;20127;-72
2022/10/04 12:20:27;;;;;;;1.75;1.10;;;;;;;;;;5054533;28;20550;-72
2022/10/04 12:23:05;;;;;;;1.35;0.93;;;;;;;;;;5055274;28;20108;-72
2022/10/04 12:25:30;;;;;;;1.73;1.55;;;;;;;;;;5053437;28;20084;-71
2022/10/04 12:27:55;;;;;;;3.35;1.33;;;;;;;;;;5053945;28;20441;-71
2022/10/04 12:30:36;;;;;;;2.05;1.20;;;;;;;;;;5036002;28;20021;-72
2022/10/04 12:33:02;;;;;;;;;;;;;;;;;;5036803;28;20094;-72
2022/10/04 12:35:42;;;;;;;2.95;1.45;;;;;;;;;;5054809;28;19913;-72
2022/10/04 12:38:07;;;;;;;;;;;;;;;;;;5054271;28;20029;-72
2022/10/04 12:40:33;;;;;;;3.27;1.00;;;;;;;;;;5053692;28;19912;-72
2022/10/04 12:43:04;;;;;;;2.17;0.85;;;;;;;;;;5053732;28;20033;-72
2022/10/04 12:45:37;;;;;;;1.35;0.90;;;;;;;;;;5053757;28;20380;-72
2022/10/04 12:48:21;;;;;;;1.02;0.80;;;;;;;;;;5036744;28;20068;-73
2022/10/04 12:51:02;;;;;;;1.30;0.80;;;;;;;;;;5054808;28;20053;-72
2022/10/04 12:53:33;;;;;;;2.58;0.82;;;;;;;;;;5055554;28;20059;-72
2022/10/04 12:55:58;;;;;;;1.45;0.95;;;;;;;;;;5055902;28;20082;-72
2022/10/04 12:58:29;;;;;;;1.65;1.02;;;;;;;;;;5055300;28;20025;-72
2022/10/04 13:00:54;;;;;;;;;;;;;;;;;;5054996;28;20064;-72
2022/10/04 13:03:40;;;;;;;1.57;0.77;;;;;;;;;;5053636;28;19947;-72
2022/10/04 13:06:28;;;;;;;1.60;0.70;;;;;;;;;;5055197;28;20040;-72
2022/10/04 13:08:55;;;;;;;1.60;0.73;;;;;;;;;;5044329;28;20064;-73
2022/10/04 13:11:26;;;;;;;1.25;0.90;;;;;;;;;;5054933;28;20025;-72
2022/10/04 13:14:02;;;;;;;1.83;0.98;;;;;;;;;;5055001;28;20029;-72
2022/10/04 13:16:34;;;;;;;4.47;0.90;;;;;;;;;;5053282;28;20033;-73
2022/10/04 13:19:05;;;;;;;1.52;0.90;;;;;;;;;;5036590;28;20123;-73
2022/10/04 13:21:40;;;;;;;1.42;0.80;;;;;;;;;;5054718;28;20364;-73
2022/10/04 13:24:24;;;;;;;1.33;0.88;;;;;;;;;;5035626;28;20391;-73
2022/10/04 13:26:56;;;;;;;2.63;0.95;;;;;;;;;;5053715;28;20036;-73
2022/10/04 13:29:25;;;;;;;1.52;1.05;;;;;;;;;;5053258;28;20435;-73
2022/10/04 13:32:01;;;;;;;3.42;0.80;;;;;;;;;;5053530;28;20025;-73
2022/10/04 13:34:27;;;;;;;4.10;1.38;;;;;;;;;;5053515;28;20037;-72
2022/10/04 13:36:59;;;;;;;1.20;0.70;;;;;;;;;;5053505;28;20067;-73
2022/10/04 13:39:40;;;;;;;2.75;1.05;;;;;;;;;;5035522;28;20024;-73
2022/10/04 13:42:12;;;;;;;2.03;0.70;;;;;;;;;;5053550;28;20117;-72
2022/10/04 13:44:55;;;;;;;1.13;0.73;;;;;;;;;;5053413;28;20052;-73
2022/10/04 13:47:39;;;;;;;2.60;1.08;;;;;;;;;;5053223;28;20029;-73
2022/10/04 13:50:13;;;;;;;1.48;0.85;;;;;;;;;;5053040;28;20087;-72
2022/10/04 13:59:25;;;;;;;1.85;0.93;;;;;;;;;;4972139;28;20085;-73
2022/10/04 14:01:54;;;;;;;1.65;0.98;;;;;;;;;;4990055;28;20042;-71
2022/10/04 14:04:22;;;;;;;2.72;1.42;;;;;;;;;;5023444;28;20033;-72
2022/10/04 14:06:47;;;;;;;3.05;0.70;;;;;;;;;;5052497;28;20032;-73
2022/10/04 14:09:28;;;;;;;2.10;0.90;;;;;;;;;;5053347;28;20066;-73
2022/10/04 14:11:53;;;;;;;;;;;;;;;;;;5035506;28;20075;-73
2022/10/04 14:14:21;;;;;;;1.90;1.03;;;;;;;;;;5052578;28;19912;-70
2022/10/04 14:17:05;;;;;;;2.78;1.20;;;;;;;;;;5051637;28;20029;-73
2022/10/04 14:19:57;;;;;;;1.88;1.20;;;;;;;;;;5052217;28;20029;-73
2022/10/04 14:22:25;;;;;;;3.05;1.42;;;;;;;;;;5034870;28;20033;-73
2022/10/04 14:25:09;;;;;;;3.45;1.42;;;;;;;;;;5052632;28;20468;-73
2022/10/04 14:28:01;;;;;;;2.55;1.33;;;;;;;;;;5053204;28;20025;-73
2022/10/04 14:30:46;;;;;;;2.55;1.80;;;;;;;;;;5021637;28;20052;-73
2022/10/04 14:33:41;;;;;;;2.60;1.15;;;;;;;;;;5052595;28;20044;-73
2022/10/04 14:36:39;;;;;;;0.88;0.88;;;;;;;;;;4981315;28;20047;-73
2022/10/04 14:39:07;;;;;;;3.65;1.45;;;;;;;;;;5052827;28;20502;-73
2022/10/04 14:41:50;;;;;;;2.78;1.00;;;;;;;;;;5052793;28;20113;-73
2022/10/04 14:44:22;;;;;;;2.97;1.30;;;;;;;;;;5052408;28;20048;-73
2022/10/04 14:46:59;;;;;;;1.85;0.95;;;;;;;;;;5052426;28;20096;-73
2022/10/04 14:49:42;;;;;;;2.30;1.17;;;;;;;;;;5052664;28;20111;-71
2022/10/04 14:52:17;;;;;;;4.13;1.10;;;;;;;;;;5052620;28;20091;-71
2022/10/04 14:55:05;;;;;;;2.15;1.30;;;;;;;;;;5052693;28;20032;-70
2022/10/04 14:57:37;;;;;;;1.63;1.00;;;;;;;;;;5052492;28;20033;-70
2022/10/04 15:00:09;;;;;;;2.10;1.17;;;;;;;;;;5053095;28;20040;-70
2022/10/04 15:02:48;;;;;;;3.13;1.50;;;;;;;;;;5052417;28;20029;-69
2022/10/04 15:05:30;;;;;;;4.25;1.98;;;;;;;;;;5052708;28;20033;-70
2022/10/04 15:08:11;;;;;;;3.50;1.25;;;;;;;;;;5052730;28;20116;-71
2022/10/04 15:10:44;;;;;;;2.30;1.35;;;;;;;;;;5034678;28;20035;-71
2022/10/04 15:13:28;;;;;;;3.50;1.90;;;;;;;;;;5052280;28;20518;-70
2022/10/04 15:16:12;;;;;;;7.68;1.50;;;;;;;;;;5034594;28;20053;-71
2022/10/04 15:18:38;;;;;;;2.97;1.48;;;;;;;;;;5010825;28;1202989;-71
2022/10/04 15:21:22;;;;;;;1.65;1.23;;;;;;;;;;5053323;28;20108;-69
2022/10/04 15:23:54;;;;;;;1.70;1.60;;;;;;;;;;5035499;28;20040;-70
2022/10/04 15:26:22;;;;;;;5.38;1.40;;;;;;;;;;5053520;28;20040;-70
2022/10/04 15:28:47;;;;;;;3.45;1.48;;;;;;;;;;5051871;28;20116;-70
2022/10/04 15:31:31;;;;;;;4.60;1.50;;;;;;;;;;5053242;28;20064;-70
2022/10/04 15:34:25;;;;;;;3.20;2.15;;;;;;;;;;5053309;28;20025;-71
2022/10/04 15:37:00;;;;;;;5.57;2.53;;;;;;;;;;5035835;28;20130;-70
2022/10/04 15:39:44;;;;;;;3.58;2.28;;;;;;;;;;5034777;28;20386;-69
2022/10/04 15:42:13;;;;;;;5.72;2.53;;;;;;;;;;5053180;28;20029;-70